LIBA

Amendola Airport

Foggia, Italy
TAF LIBA 221700Z 2218/2303 25012KT 9999 FEW030 SCT060
Issued Valid From Valid To
Jan-22 @ 17:00 UTC
(47 minutes ago)
Jan-22 @ 18:00 UTC
(in 13 minutes)
Jan-23 @ 03:00 UTC
(in 9 hours)
Jan-22 @ 18:00 to Jan-23 @ 03:00
TAF LIBA 221700Z 2218/2303 25012KT 9999 FEW030 SCT060
Wind Visibility Clouds
250° at 12 knots 10,000+ meters
  • Few at 3,000' AGL
  • Scattered at 6,000' AGL
TAF LIBA 221700Z 2218/2303 25012KT 9999 FEW030 SCT060
Issued Jan-22 @ 17:00 UTC
(47 minutes ago)
Valid From Jan-22 @ 18:00 UTC
(in 13 minutes)
Valid To Jan-23 @ 03:00 UTC
(in 9 hours)
Jan-22 @ 18:00 - Jan-23 @ 03:00
Wind Visibility
250° at 12 knots 10,000+ meters
Clouds
  • Few at 3,000' AGL
  • Scattered at 6,000' AGL